Time;durP1;ratioP1;P1;durP2;ratioP2;P2;SDS_P1;SDS_P2;PMS_P1;PMS_P2;Temp;Humidity;BMP_temperature;BMP_pressure;BME280_temperature;BME280_humidity;BME280_pressure;Samples;Min_cycle;Max_cycle;Signal;HPM_P1;HPM_P2
2023/03/19 00:02:04;;;;;;;26.83;14.77;;;7.40;99.90;;;;;;5044830;28;20060;-72
2023/03/19 00:04:44;;;;;;;18.50;12.65;;;7.40;99.90;;;;;;5047303;28;20109;-72
2023/03/19 00:07:12;;;;;;;24.83;12.25;;;7.20;99.90;;;;;;5049313;28;20029;-71
2023/03/19 00:09:39;;;;;;;19.20;11.38;;;7.10;99.90;;;;;;5043819;28;20415;-72
2023/03/19 00:12:06;;;;;;;15.23;10.73;;;7.10;99.90;;;;;;5033266;28;20064;-74
2023/03/19 00:14:32;;;;;;;18.20;13.07;;;7.00;99.90;;;;;;5049606;28;20045;-73
2023/03/19 00:17:00;;;;;;;23.67;12.27;;;6.90;99.90;;;;;;5048041;28;20464;-72
2023/03/19 00:19:27;;;;;;;17.02;12.50;;;6.90;99.90;;;;;;5047033;28;20044;-72
2023/03/19 00:21:53;;;;;;;23.35;13.70;;;6.70;99.90;;;;;;5051000;28;20520;-72
2023/03/19 00:24:20;;;;;;;22.70;14.80;;;6.80;99.90;;;;;;5049812;28;20044;-72
2023/03/19 00:26:47;;;;;;;18.58;15.40;;;6.80;99.90;;;;;;5048288;28;20043;-72
2023/03/19 00:29:14;;;;;;;24.13;13.55;;;6.90;99.90;;;;;;5050248;28;20036;-72
2023/03/19 00:31:41;;;;;;;17.63;13.43;;;6.80;99.90;;;;;;5042872;28;20075;-72
2023/03/19 00:34:08;;;;;;;19.52;12.50;;;6.80;99.90;;;;;;5050769;28;20237;-73
2023/03/19 00:36:36;;;;;;;21.17;13.75;;;6.80;99.90;;;;;;5046832;28;20039;-73
2023/03/19 00:39:03;;;;;;;19.30;13.48;;;6.80;99.90;;;;;;5051135;28;20127;-72
2023/03/19 00:41:31;;;;;;;16.42;12.05;;;6.70;99.90;;;;;;5032112;28;20049;-72
2023/03/19 00:43:57;;;;;;;17.38;12.77;;;6.80;99.90;;;;;;5043653;28;20041;-73
2023/03/19 00:46:25;;;;;;;18.88;13.18;;;6.80;99.90;;;;;;5032222;28;20071;-72
2023/03/19 00:48:54;;;;;;;20.02;14.50;;;6.70;99.90;;;;;;5051977;28;20626;-73
2023/03/19 00:51:22;;;;;;;20.10;12.75;;;6.50;99.90;;;;;;5030116;28;20064;-72
2023/03/19 00:53:50;;;;;;;16.38;13.32;;;6.50;99.90;;;;;;5036417;28;20044;-72
2023/03/19 00:56:18;;;;;;;21.70;13.52;;;6.40;99.90;;;;;;5052620;28;20053;-73
2023/03/19 00:58:46;;;;;;;18.15;13.18;;;6.50;99.90;;;;;;5039752;28;20052;-72
2023/03/19 01:01:15;;;;;;;23.52;13.75;;;6.40;99.90;;;;;;5050686;28;20101;-72
2023/03/19 01:03:43;;;;;;;15.38;12.38;;;6.50;99.90;;;;;;5037929;28;20128;-72
2023/03/19 01:06:11;;;;;;;16.73;10.95;;;6.60;99.90;;;;;;5049663;28;20602;-72
2023/03/19 01:08:38;;;;;;;12.50;10.35;;;6.70;99.90;;;;;;5050754;28;20321;-72
2023/03/19 01:11:07;;;;;;;16.73;11.13;;;6.60;99.90;;;;;;5050295;28;20127;-72
2023/03/19 01:13:34;;;;;;;15.88;8.43;;;6.60;99.90;;;;;;5035004;28;20045;-72
2023/03/19 01:16:02;;;;;;;16.55;10.85;;;6.50;99.90;;;;;;5036689;28;20135;-72
2023/03/19 01:18:29;;;;;;;15.45;9.52;;;6.50;99.90;;;;;;5047643;28;20078;-72
2023/03/19 01:20:56;;;;;;;15.95;9.40;;;6.50;99.90;;;;;;5032230;28;20163;-72
2023/03/19 01:23:24;;;;;;;14.45;9.77;;;6.40;99.90;;;;;;5046292;28;20053;-72
2023/03/19 01:25:51;;;;;;;11.05;9.80;;;6.30;99.90;;;;;;5035608;28;20053;-72
2023/03/19 01:28:18;;;;;;;15.27;9.85;;;6.30;99.90;;;;;;5048914;28;20491;-72
2023/03/19 01:30:45;;;;;;;15.90;10.15;;;6.40;99.90;;;;;;5044699;28;20072;-72
2023/03/19 01:33:36;;;;;;;15.63;10.57;;;6.40;99.90;;;;;;5046745;28;20148;-72
2023/03/19 01:36:11;;;;;;;13.63;9.13;;;6.40;99.90;;;;;;5036930;28;20458;-72
2023/03/19 01:38:51;;;;;;;11.45;9.65;;;6.40;99.90;;;;;;5047031;28;20068;-72
2023/03/19 01:41:18;;;;;;;14.95;10.35;;;6.60;99.90;;;;;;5050632;28;20102;-72
2023/03/19 01:43:46;;;;;;;14.00;10.38;;;6.60;99.90;;;;;;5048624;28;20562;-72
2023/03/19 01:46:35;;;;;;;15.23;11.68;;;6.60;99.90;;;;;;5036923;28;20094;-72
2023/03/19 01:49:20;;;;;;;16.65;11.27;;;6.60;99.90;;;;;;5048375;28;20047;-72
2023/03/19 01:51:53;;;;;;;19.42;12.05;;;6.50;99.90;;;;;;5048390;28;20160;-72
2023/03/19 01:54:31;;;;;;;11.93;9.05;;;6.30;99.90;;;;;;5052645;28;20036;-72
2023/03/19 01:57:18;;;;;;;16.08;8.65;;;6.50;99.90;;;;;;5051000;28;20048;-72
2023/03/19 02:00:06;;;;;;;11.85;8.60;;;6.60;99.90;;;;;;5065770;28;20153;-72
2023/03/19 02:02:46;;;;;;;25.73;8.60;;;6.40;99.90;;;;;;5052058;28;20060;-72
2023/03/19 02:05:25;;;;;;;11.63;8.35;;;6.50;99.90;;;;;;5044435;28;20067;-72
2023/03/19 02:08:05;;;;;;;16.47;10.33;;;6.50;99.90;;;;;;5062247;28;20127;-72
2023/03/19 02:10:33;;;;;;;17.77;9.73;;;6.50;99.90;;;;;;5048526;28;20279;-72
2023/03/19 02:13:00;;;;;;;17.98;10.07;;;6.50;99.90;;;;;;5037229;28;20049;-72
2023/03/19 02:15:27;;;;;;;16.02;10.07;;;6.60;99.90;;;;;;5051687;28;20040;-72
2023/03/19 02:17:55;;;;;;;14.10;10.45;;;6.70;99.90;;;;;;5051165;28;20805;-72
2023/03/19 02:20:39;;;;;;;15.73;11.57;;;6.80;99.90;;;;;;5048997;28;20123;-72
2023/03/19 02:23:33;;;;;;;15.55;10.07;;;6.70;99.90;;;;;;5031303;28;20045;-72
2023/03/19 02:26:08;;;;;;;13.68;10.18;;;6.80;99.90;;;;;;5039138;28;20121;-72
2023/03/19 02:28:39;;;;;;;11.10;8.77;;;6.80;99.90;;;;;;5043796;28;20144;-72
2023/03/19 02:31:07;;;;;;;14.38;9.82;;;6.80;99.90;;;;;;5030005;28;20091;-73
2023/03/19 02:33:34;;;;;;;10.88;8.55;;;7.00;99.90;;;;;;5048339;28;20045;-72
2023/03/19 02:36:04;;;;;;;17.17;9.65;;;6.90;99.90;;;;;;5044982;28;20029;-72
2023/03/19 02:38:33;;;;;;;14.20;9.43;;;6.90;99.90;;;;;;5044252;28;20045;-72
2023/03/19 02:41:03;;;;;;;10.63;8.70;;;6.90;99.90;;;;;;5042372;28;20080;-72
2023/03/19 02:43:33;;;;;;;13.30;9.57;;;6.90;99.90;;;;;;5046485;28;20044;-72
2023/03/19 02:46:01;;;;;;;14.70;10.13;;;6.90;99.90;;;;;;5031415;28;20068;-72
2023/03/19 02:48:28;;;;;;;14.50;9.30;;;6.90;99.90;;;;;;5044544;28;20680;-72
2023/03/19 02:50:55;;;;;;;15.50;9.20;;;7.00;99.90;;;;;;5046148;28;20048;-72
2023/03/19 02:53:22;;;;;;;11.02;8.43;;;7.10;99.90;;;;;;5048985;28;20044;-71
2023/03/19 02:55:50;;;;;;;14.98;8.68;;;7.00;99.90;;;;;;5052134;28;20106;-72
2023/03/19 02:58:18;;;;;;;11.88;8.50;;;7.00;99.90;;;;;;5047576;28;20036;-72
2023/03/19 03:00:45;;;;;;;12.75;8.70;;;7.10;99.90;;;;;;5042296;28;20070;-72
2023/03/19 03:03:12;;;;;;;16.25;9.95;;;7.10;99.90;;;;;;5045462;28;20044;-72
2023/03/19 03:05:39;;;;;;;14.07;8.20;;;7.20;99.90;;;;;;5041826;28;20412;-72
2023/03/19 03:08:06;;;;;;;11.75;9.18;;;7.20;99.90;;;;;;5050989;28;20052;-72
2023/03/19 03:10:33;;;;;;;11.52;9.40;;;7.30;99.90;;;;;;5047011;28;20080;-72
2023/03/19 03:13:00;;;;;;;18.40;10.10;;;7.40;99.90;;;;;;5032169;28;20069;-71
2023/03/19 03:15:27;;;;;;;13.88;8.45;;;7.40;99.90;;;;;;5032357;28;20114;-72
2023/03/19 03:17:55;;;;;;;12.85;8.07;;;7.40;99.90;;;;;;5048537;28;20056;-74
2023/03/19 03:20:22;;;;;;;11.23;7.05;;;7.40;99.90;;;;;;5046506;28;20473;-72
2023/03/19 03:22:48;;;;;;;8.15;6.85;;;7.40;99.90;;;;;;5033190;28;20514;-72
2023/03/19 03:25:15;;;;;;;8.95;6.90;;;7.40;99.90;;;;;;5047433;28;20705;-72
2023/03/19 03:27:42;;;;;;;10.88;7.00;;;7.40;99.90;;;;;;5033595;28;20033;-73
2023/03/19 03:30:11;;;;;;;11.20;7.63;;;7.30;99.90;;;;;;5045035;28;20639;-73
2023/03/19 03:32:39;;;;;;;10.85;7.72;;;7.40;99.90;;;;;;5042387;28;20056;-73
2023/03/19 03:35:07;;;;;;;9.75;7.78;;;7.40;99.90;;;;;;5051526;28;20189;-73
2023/03/19 03:37:34;;;;;;;15.98;7.57;;;7.50;99.90;;;;;;5032980;28;20048;-73
2023/03/19 03:40:05;;;;;;;9.48;6.45;;;7.50;99.90;;;;;;5034630;28;20719;-73
2023/03/19 03:42:32;;;;;;;15.60;7.10;;;7.40;99.90;;;;;;5048643;28;20169;-73
2023/03/19 03:44:59;;;;;;;9.88;7.38;;;7.40;99.90;;;;;;5047779;28;20079;-73
2023/03/19 03:47:26;;;;;;;12.68;7.18;;;7.50;99.90;;;;;;5049539;28;20186;-73
2023/03/19 03:49:53;;;;;;;7.35;6.43;;;7.40;99.90;;;;;;5034087;28;20516;-73
2023/03/19 03:52:20;;;;;;;12.30;7.57;;;7.50;99.90;;;;;;5032824;28;20040;-73
2023/03/19 03:54:46;;;;;;;9.90;6.93;;;7.50;99.90;;;;;;5049001;28;20062;-73
2023/03/19 03:57:13;;;;;;;10.73;7.22;;;7.50;99.90;;;;;;5049429;28;20552;-72
2023/03/19 03:59:41;;;;;;;10.20;7.50;;;7.50;99.90;;;;;;5034852;28;20119;-73
2023/03/19 04:02:08;;;;;;;11.05;7.40;;;7.40;99.90;;;;;;5046112;28;20132;-73
2023/03/19 04:04:34;;;;;;;9.80;6.97;;;7.20;99.90;;;;;;5032823;28;20173;-73
2023/03/19 04:07:01;;;;;;;14.77;8.45;;;7.30;99.90;;;;;;5045142;28;20040;-73
2023/03/19 04:09:38;;;;;;;10.63;7.75;;;7.30;99.90;;;;;;5034313;28;20158;-73
2023/03/19 04:12:05;;;;;;;14.95;8.00;;;7.30;99.90;;;;;;5046983;28;20032;-73
2023/03/19 04:14:31;;;;;;;8.65;7.50;;;7.30;99.90;;;;;;5032971;28;20037;-73
2023/03/19 04:16:58;;;;;;;8.48;7.32;;;7.40;99.90;;;;;;5047430;28;20072;-73
2023/03/19 04:19:26;;;;;;;13.10;7.90;;;7.40;99.90;;;;;;5053201;28;20178;-72
2023/03/19 04:21:53;;;;;;;9.65;7.05;;;7.30;99.90;;;;;;5051710;28;20048;-73
2023/03/19 04:24:20;;;;;;;8.23;7.38;;;7.50;99.90;;;;;;5036987;28;20127;-73
2023/03/19 04:26:48;;;;;;;9.95;6.78;;;7.30;99.90;;;;;;5049000;28;20604;-73
2023/03/19 04:29:17;;;;;;;9.88;7.47;;;7.40;99.90;;;;;;5049870;28;20518;-73
2023/03/19 04:31:44;;;;;;;10.82;7.30;;;7.40;99.90;;;;;;5048648;28;20040;-74
2023/03/19 04:34:11;;;;;;;13.40;8.80;;;7.40;99.90;;;;;;5054709;28;20037;-73
2023/03/19 04:36:38;;;;;;;11.18;9.35;;;7.40;99.90;;;;;;5052057;28;20075;-73
2023/03/19 04:39:05;;;;;;;10.57;9.07;;;7.40;99.90;;;;;;5054220;28;20488;-74
2023/03/19 04:41:32;;;;;;;14.95;9.40;;;7.60;99.90;;;;;;5049132;28;21416;-73
2023/03/19 04:44:17;;;;;;;8.93;7.85;;;7.60;99.90;;;;;;5050453;28;20045;-73
2023/03/19 04:46:45;;;;;;;12.48;8.48;;;7.60;99.90;;;;;;5050459;28;20361;-73
2023/03/19 04:49:14;;;;;;;11.05;7.70;;;7.70;99.90;;;;;;5034923;28;20080;-72
2023/03/19 04:51:41;;;;;;;14.73;7.35;;;7.70;99.90;;;;;;5051911;28;20605;-73
2023/03/19 04:54:08;;;;;;;9.23;7.35;;;7.70;99.90;;;;;;5036414;28;20091;-73
2023/03/19 04:56:35;;;;;;;15.40;6.47;;;7.70;99.90;;;;;;5052249;28;20123;-72
2023/03/19 04:59:02;;;;;;;9.77;6.30;;;7.80;99.90;;;;;;5046609;28;20582;-73
2023/03/19 05:01:30;;;;;;;11.18;6.95;;;7.80;99.90;;;;;;5050539;28;20036;-73
2023/03/19 05:04:00;;;;;;;12.85;7.25;;;7.80;99.90;;;;;;5050118;28;20041;-74
2023/03/19 05:06:27;;;;;;;8.00;6.22;;;7.90;99.90;;;;;;5036168;28;20576;-73
2023/03/19 05:08:55;;;;;;;11.88;7.32;;;8.00;99.90;;;;;;5035724;28;20104;-72
2023/03/19 05:11:22;;;;;;;10.48;6.53;;;8.10;99.90;;;;;;5052180;28;20434;-73
2023/03/19 05:14:01;;;;;;;11.30;5.88;;;8.10;99.90;;;;;;5049947;28;20037;-72
2023/03/19 05:16:37;;;;;;;9.38;5.78;;;8.10;99.90;;;;;;5070721;22;20106;-77
2023/03/19 05:19:05;;;;;;;11.68;6.32;;;8.10;99.90;;;;;;5054904;28;20045;-77
2023/03/19 05:21:32;;;;;;;10.38;6.30;;;8.10;99.90;;;;;;5046155;28;21302;-76
2023/03/19 05:23:59;;;;;;;10.38;5.60;;;8.00;99.90;;;;;;5069662;28;20040;-77
2023/03/19 05:26:28;;;;;;;8.73;6.75;;;8.10;99.90;;;;;;5053211;28;20658;-76
2023/03/19 05:29:09;;;;;;;11.88;6.72;;;8.10;99.90;;;;;;5068113;28;20579;-77
2023/03/19 05:31:49;;;;;;;8.00;6.28;;;8.20;99.90;;;;;;5050008;28;20044;-77
2023/03/19 05:34:18;;;;;;;11.35;6.05;;;8.20;99.90;;;;;;5065208;28;20035;-77
2023/03/19 05:36:45;;;;;;;9.15;5.38;;;8.20;99.90;;;;;;5044260;28;20083;-76
2023/03/19 05:39:16;;;;;;;8.68;5.38;;;8.30;99.90;;;;;;5051256;28;20035;-76
2023/03/19 05:41:43;;;;;;;11.40;6.80;;;8.50;99.90;;;;;;5045271;28;20489;-78
2023/03/19 05:44:15;;;;;;;5.53;4.63;;;8.50;99.90;;;;;;5054041;28;20048;-77
2023/03/19 05:46:51;;;;;;;10.85;5.57;;;8.50;99.90;;;;;;5057260;28;20051;-77
2023/03/19 05:49:19;;;;;;;8.05;5.82;;;8.20;99.90;;;;;;5038458;28;20036;-76
2023/03/19 05:51:46;;;;;;;12.52;5.82;;;8.10;99.90;;;;;;5049470;28;20056;-77
2023/03/19 05:54:12;;;;;;;10.63;6.65;;;8.20;99.90;;;;;;5055033;28;20535;-76
2023/03/19 05:56:48;;;;;;;10.00;7.18;;;8.30;99.90;;;;;;5054980;28;20044;-76
2023/03/19 05:59:47;;;;;;;12.40;7.78;;;8.20;99.90;;;;;;5027018;28;20059;-77
2023/03/19 06:02:33;;;;;;;11.57;7.63;;;8.40;99.90;;;;;;5065027;28;20167;-77
2023/03/19 06:05:20;;;;;;;11.88;6.90;;;8.30;99.90;;;;;;5067452;28;20047;-76
2023/03/19 06:07:47;;;;;;;14.05;8.38;;;8.20;99.90;;;;;;5055413;28;20044;-76
2023/03/19 06:10:22;;;;;;;13.00;8.07;;;8.10;99.90;;;;;;5050189;28;20032;-76
2023/03/19 06:12:52;;;;;;;10.88;8.25;;;8.10;99.90;;;;;;5057420;28;20048;-77
2023/03/19 06:15:38;;;;;;;14.35;8.75;;;8.20;99.90;;;;;;5057154;28;20059;-76
2023/03/19 06:18:28;;;;;;;13.40;9.65;;;8.20;99.90;;;;;;5068851;28;20417;-78
2023/03/19 06:20:55;;;;;;;11.20;8.90;;;8.40;99.90;;;;;;5060067;28;20047;-76
2023/03/19 06:23:22;;;;;;;14.18;9.35;;;8.40;99.90;;;;;;5051291;28;20041;-78
2023/03/19 06:25:49;;;;;;;16.08;8.18;;;8.30;99.90;;;;;;5065312;28;20567;-76
2023/03/19 06:28:16;;;;;;;12.85;8.25;;;8.20;99.90;;;;;;5068445;28;20097;-77
2023/03/19 06:30:44;;;;;;;11.80;8.70;;;8.10;99.90;;;;;;5054016;28;20044;-77
2023/03/19 06:33:31;;;;;;;;;;;8.10;99.90;;;;;;5066108;28;20812;-77
2023/03/19 06:35:58;;;;;;;10.88;7.68;;;8.20;99.90;;;;;;5046714;28;19924;-77
2023/03/19 06:38:26;;;;;;;16.27;8.05;;;8.20;99.90;;;;;;5051237;28;20532;-76
2023/03/19 06:40:53;;;;;;;9.48;6.60;;;8.20;99.90;;;;;;5058927;28;20062;-75
2023/03/19 06:43:20;;;;;;;10.73;7.88;;;8.20;99.90;;;;;;5059695;28;20122;-78
2023/03/19 06:45:47;;;;;;;12.50;7.45;;;8.30;99.90;;;;;;5049489;28;20567;-76
2023/03/19 06:48:14;;;;;;;10.60;7.25;;;8.40;99.90;;;;;;5072165;28;21271;-78
2023/03/19 06:50:41;;;;;;;11.18;8.30;;;8.50;99.90;;;;;;5053329;28;20108;-76
2023/03/19 06:53:08;;;;;;;10.25;7.75;;;8.60;99.90;;;;;;5069232;28;20048;-75
2023/03/19 06:55:36;;;;;;;15.25;7.82;;;8.80;99.90;;;;;;5070012;28;20067;-75
2023/03/19 06:58:02;;;;;;;9.57;7.55;;;8.70;99.90;;;;;;5049925;28;20040;-75
2023/03/19 07:00:29;;;;;;;10.02;7.88;;;8.70;99.90;;;;;;5058113;28;23518;-77
2023/03/19 07:02:56;;;;;;;10.15;6.82;;;8.70;99.90;;;;;;5043624;28;20048;-77
2023/03/19 07:05:23;;;;;;;7.72;6.80;;;8.80;99.90;;;;;;5072302;28;20048;-78
2023/03/19 07:07:50;;;;;;;12.95;7.53;;;8.90;99.90;;;;;;5064533;28;20044;-77
2023/03/19 07:10:18;;;;;;;9.07;6.78;;;8.90;99.90;;;;;;5052802;28;20040;-78
2023/03/19 07:12:45;;;;;;;12.13;7.90;;;9.00;99.90;;;;;;5064340;28;20054;-77
2023/03/19 07:15:12;;;;;;;9.60;7.43;;;9.30;99.90;;;;;;5067084;28;20041;-75
2023/03/19 07:17:38;;;;;;;9.55;7.53;;;9.40;99.90;;;;;;5047370;28;20712;-77
2023/03/19 07:20:05;;;;;;;9.10;8.27;;;9.40;99.90;;;;;;5064170;28;20139;-76
2023/03/19 07:22:32;;;;;;;11.43;8.27;;;9.40;99.90;;;;;;5062487;28;20052;-75
2023/03/19 07:24:59;;;;;;;10.02;7.13;;;9.60;99.90;;;;;;5065249;28;20065;-77
2023/03/19 07:27:26;;;;;;;11.20;7.53;;;9.70;99.90;;;;;;5051698;28;20495;-75
2023/03/19 07:29:54;;;;;;;9.38;8.35;;;9.50;99.90;;;;;;5070114;28;20535;-76
2023/03/19 07:32:22;;;;;;;9.93;7.68;;;9.40;99.90;;;;;;5063098;28;20039;-77
2023/03/19 07:34:49;;;;;;;10.32;8.35;;;9.40;99.90;;;;;;5066296;28;20049;-75
2023/03/19 07:37:16;;;;;;;11.93;8.27;;;9.50;99.90;;;;;;5062490;28;20045;-78
2023/03/19 07:39:43;;;;;;;10.10;7.63;;;9.60;99.90;;;;;;5053908;28;20067;-77
2023/03/19 07:42:10;;;;;;;11.23;8.45;;;9.70;99.90;;;;;;5046826;28;20041;-79
2023/03/19 07:44:38;;;;;;;13.77;8.52;;;9.80;99.90;;;;;;5070343;28;20044;-76
2023/03/19 07:47:06;;;;;;;9.98;8.57;;;10.00;99.90;;;;;;5070722;28;20036;-77
2023/03/19 07:49:51;;;;;;;13.27;8.63;;;10.10;99.90;;;;;;5052100;28;20047;-76
2023/03/19 07:52:18;;;;;;;10.73;9.23;;;10.10;99.90;;;;;;5065672;28;20137;-78
2023/03/19 07:54:46;;;;;;;11.10;10.02;;;10.30;99.90;;;;;;5068251;28;20085;-76
2023/03/19 07:57:12;;;;;;;12.18;10.98;;;10.40;99.90;;;;;;5062972;28;20048;-76
2023/03/19 07:59:39;;;;;;;12.65;10.70;;;10.50;99.90;;;;;;5046706;28;20123;-77
2023/03/19 08:02:10;;;;;;;12.68;9.98;;;10.60;99.90;;;;;;5050292;28;20048;-78
2023/03/19 08:04:37;;;;;;;11.27;10.13;;;10.60;99.90;;;;;;5047994;28;20753;-78
2023/03/19 08:07:04;;;;;;;10.82;9.88;;;10.60;99.90;;;;;;5048009;28;20143;-77
2023/03/19 08:09:32;;;;;;;10.00;8.95;;;10.60;99.90;;;;;;5049026;28;20056;-76
2023/03/19 08:11:58;;;;;;;14.13;8.70;;;10.50;99.90;;;;;;5063809;28;20053;-77
2023/03/19 08:14:25;;;;;;;9.43;8.45;;;10.50;99.90;;;;;;5064992;28;20413;-77
2023/03/19 08:16:51;;;;;;;9.50;8.60;;;10.60;99.90;;;;;;5067132;28;20368;-76
2023/03/19 08:19:18;;;;;;;9.60;8.80;;;10.70;99.90;;;;;;5062365;28;20113;-77
2023/03/19 08:21:45;;;;;;;12.43;8.98;;;10.70;99.90;;;;;;5067065;28;20130;-79
2023/03/19 08:24:12;;;;;;;10.95;10.07;;;10.80;99.90;;;;;;5050411;28;20055;-78
2023/03/19 08:26:39;;;;;;;11.43;10.43;;;11.00;99.90;;;;;;5065874;28;20071;-76
2023/03/19 08:29:07;;;;;;;15.43;14.05;;;11.10;99.90;;;;;;5042889;28;20041;-77
2023/03/19 08:31:33;;;;;;;18.27;16.10;;;11.30;99.90;;;;;;5065478;28;20036;-77
2023/03/19 08:34:02;;;;;;;20.02;18.02;;;11.50;99.90;;;;;;5055331;28;20691;-76
2023/03/19 08:36:30;;;;;;;19.25;17.60;;;11.60;99.90;;;;;;5062345;28;20051;-76
2023/03/19 08:38:57;;;;;;;25.65;23.63;;;11.70;99.90;;;;;;5067326;28;20108;-76
2023/03/19 08:41:24;;;;;;;25.63;23.33;;;11.70;99.90;;;;;;5074950;28;20112;-77
2023/03/19 08:43:51;;;;;;;22.52;20.48;;;11.90;99.90;;;;;;5064939;28;20087;-76
2023/03/19 08:46:18;;;;;;;23.77;21.85;;;11.90;99.90;;;;;;5064815;28;20048;-76
2023/03/19 08:48:45;;;;;;;21.65;19.90;;;12.00;99.90;;;;;;5071937;28;20327;-78
2023/03/19 08:51:13;;;;;;;19.23;17.83;;;12.00;99.90;;;;;;5047292;28;20166;-76
2023/03/19 08:53:39;;;;;;;21.00;19.60;;;12.10;99.90;;;;;;5057553;28;20554;-77
2023/03/19 08:56:07;;;;;;;20.65;19.17;;;12.10;99.90;;;;;;5068642;28;20227;-79
2023/03/19 08:58:34;;;;;;;22.15;19.98;;;12.30;99.90;;;;;;5069263;28;20098;-78
2023/03/19 09:01:06;;;;;;;22.27;20.50;;;12.50;99.90;;;;;;5062602;28;20262;-77
2023/03/19 09:03:32;;;;;;;23.17;21.67;;;12.60;99.90;;;;;;5064061;28;20044;-77
2023/03/19 09:06:00;;;;;;;26.13;24.33;;;12.70;99.90;;;;;;5057657;28;20048;-79
2023/03/19 09:08:29;;;;;;;30.67;29.02;;;12.70;99.90;;;;;;5062379;28;20058;-78
2023/03/19 09:10:56;;;;;;;31.25;29.55;;;12.70;99.90;;;;;;5064645;28;20127;-77
2023/03/19 09:13:24;;;;;;;29.33;27.38;;;12.70;99.90;;;;;;5066463;28;20559;-78
2023/03/19 09:15:51;;;;;;;29.52;27.77;;;12.70;99.90;;;;;;5064082;28;20556;-76
2023/03/19 09:18:19;;;;;;;28.70;26.80;;;12.70;99.90;;;;;;5068929;28;20068;-78
2023/03/19 09:20:46;;;;;;;29.38;27.73;;;12.80;99.90;;;;;;5064206;28;20135;-79
2023/03/19 09:23:13;;;;;;;29.48;27.58;;;12.80;99.90;;;;;;5070629;28;20064;-76
2023/03/19 09:25:40;;;;;;;28.75;27.25;;;12.90;99.90;;;;;;5043605;28;20057;-77
2023/03/19 09:28:06;;;;;;;32.67;30.45;;;12.90;99.90;;;;;;5052590;28;20047;-75
2023/03/19 09:30:33;;;;;;;33.20;30.90;;;12.90;99.90;;;;;;5064529;28;20661;-75
2023/03/19 09:33:00;;;;;;;31.70;29.95;;;13.00;99.90;;;;;;5069697;28;20032;-77
2023/03/19 09:35:30;;;;;;;34.22;32.33;;;13.00;99.90;;;;;;5052329;28;20072;-77
2023/03/19 09:37:57;;;;;;;33.25;31.48;;;13.00;99.90;;;;;;5068552;28;20108;-76
2023/03/19 09:40:41;;;;;;;33.58;31.67;;;13.00;99.90;;;;;;5067543;28;20114;-77
2023/03/19 09:43:30;;;;;;;34.30;32.60;;;13.10;99.90;;;;;;5068284;28;20188;-78
2023/03/19 09:45:58;;;;;;;28.00;26.55;;;13.10;99.90;;;;;;5063945;28;20087;-75
2023/03/19 09:48:42;;;;;;;27.10;25.27;;;13.00;99.90;;;;;;5074768;28;20658;-76
2023/03/19 09:51:20;;;;;;;27.83;26.13;;;12.90;99.90;;;;;;5065600;28;20055;-75
2023/03/19 09:54:00;;;;;;;27.10;25.23;;;12.90;99.90;;;;;;5034031;28;20048;-78
2023/03/19 09:56:27;;;;;;;25.50;24.10;;;12.80;99.90;;;;;;5046958;28;20501;-76
2023/03/19 09:58:54;;;;;;;27.92;26.33;;;12.80;99.90;;;;;;5068776;28;20041;-77
2023/03/19 10:01:27;;;;;;;26.58;25.08;;;12.80;99.90;;;;;;5059101;28;20040;-76
2023/03/19 10:04:26;;;;;;;27.42;25.67;;;12.90;99.90;;;;;;5050302;28;20044;-77
2023/03/19 10:07:07;;;;;;;27.10;25.48;;;13.00;99.90;;;;;;5030850;28;20049;-77
2023/03/19 10:10:05;;;;;;;28.50;26.85;;;13.00;99.90;;;;;;5068604;28;20044;-76
2023/03/19 10:12:47;;;;;;;27.58;25.83;;;13.10;99.90;;;;;;5063642;28;20036;-75
2023/03/19 10:15:31;;;;;;;60.92;46.22;;;13.20;99.90;;;;;;5042827;28;20041;-75
2023/03/19 10:18:03;;;;;;;29.77;27.85;;;13.30;99.90;;;;;;5060254;28;20047;-76
2023/03/19 10:20:40;;;;;;;31.25;29.25;;;13.50;99.90;;;;;;5062579;28;20048;-75
2023/03/19 10:23:39;;;;;;;28.80;27.15;;;13.70;99.90;;;;;;5059133;28;20044;-74
2023/03/19 10:26:12;;;;;;;30.48;28.77;;;13.70;99.90;;;;;;5019430;28;20036;-77
2023/03/19 10:28:42;;;;;;;28.75;26.92;;;13.80;99.90;;;;;;5062061;28;20072;-76
2023/03/19 10:31:43;;;;;;;27.23;25.52;;;14.00;99.90;;;;;;5066981;28;20093;-76
2023/03/19 10:34:18;;;;;;;24.40;23.30;;;14.00;99.90;;;;;;5059017;28;20047;-77
2023/03/19 10:36:45;;;;;;;25.83;24.58;;;14.10;99.90;;;;;;5047299;28;20040;-75
2023/03/19 10:39:15;;;;;;;25.35;24.00;;;14.30;99.90;;;;;;5048393;28;20555;-75
2023/03/19 10:42:20;;;;;;;24.23;23.05;;;14.50;99.90;;;;;;5051782;28;20498;-77
2023/03/19 10:45:00;;;;;;;26.35;24.75;;;14.60;99.90;;;;;;5060871;28;20048;-77
2023/03/19 10:47:27;;;;;;;26.70;25.20;;;14.60;99.90;;;;;;5061281;28;20048;-77
2023/03/19 10:49:55;;;;;;;28.45;26.95;;;14.60;99.90;;;;;;5050731;28;20040;-75
2023/03/19 10:52:27;;;;;;;26.13;24.92;;;14.70;99.90;;;;;;5046681;28;20513;-76
2023/03/19 10:55:00;;;;;;;27.65;26.25;;;14.80;99.90;;;;;;5063396;28;20126;-74
2023/03/19 10:57:30;;;;;;;25.08;23.77;;;14.90;99.90;;;;;;5049057;28;20054;-77
2023/03/19 11:00:04;;;;;;;25.30;23.98;;;15.00;99.90;;;;;;5047275;28;20050;-74
2023/03/19 11:02:31;;;;;;;25.73;24.10;;;15.30;99.90;;;;;;5061336;28;20098;-75
2023/03/19 11:05:13;;;;;;;28.05;26.35;;;15.30;99.90;;;;;;5061601;28;20068;-75
2023/03/19 11:07:40;;;;;;;30.15;28.52;;;15.40;99.90;;;;;;5061042;28;20266;-76
2023/03/19 11:10:15;;;;;;;29.58;27.95;;;15.50;99.90;;;;;;5057966;28;20162;-76
2023/03/19 11:12:46;;;;;;;;;;;15.30;99.90;;;;;;5044451;28;20048;-76
2023/03/19 11:15:20;;;;;;;36.85;34.33;;;15.40;99.90;;;;;;5058037;28;19930;-73
2023/03/19 11:17:56;;;;;;;34.40;32.50;;;15.20;99.90;;;;;;5045300;28;20051;-76
2023/03/19 11:20:32;;;;;;;33.08;31.27;;;15.00;99.90;;;;;;5046265;28;20071;-76
2023/03/19 11:23:01;;;;;;;32.80;31.15;;;14.90;99.90;;;;;;5057529;28;20053;-77
2023/03/19 11:25:34;;;;;;;32.28;30.75;;;14.90;99.90;;;;;;5057078;28;20040;-74
2023/03/19 11:28:05;;;;;;;33.80;32.10;;;14.90;99.90;;;;;;5059708;28;20044;-78
2023/03/19 11:30:48;;;;;;;32.35;30.75;;;14.60;99.90;;;;;;5067665;28;20115;-76
2023/03/19 11:33:45;;;;;;;31.98;30.17;;;14.50;99.90;;;;;;5065122;28;20270;-76
2023/03/19 11:36:20;;;;;;;32.28;30.77;;;14.40;99.90;;;;;;5064174;28;20040;-76
2023/03/19 11:39:10;;;;;;;32.57;30.87;;;14.40;99.90;;;;;;5064541;28;20105;-73
2023/03/19 11:41:40;;;;;;;32.33;30.85;;;14.60;99.90;;;;;;5066931;28;20301;-75
2023/03/19 11:44:29;;;;;;;31.20;29.65;;;14.50;99.90;;;;;;5062199;28;20105;-75
2023/03/19 11:47:14;;;;;;;30.17;28.77;;;14.30;99.90;;;;;;5062437;28;20046;-76
2023/03/19 11:50:07;;;;;;;30.02;28.42;;;14.20;99.90;;;;;;5061905;28;20438;-74
2023/03/19 11:53:10;;;;;;;29.63;28.23;;;14.20;99.90;;;;;;5058833;28;20072;-74
2023/03/19 11:55:51;;;;;;;29.75;28.08;;;14.30;99.90;;;;;;5049676;28;20521;-76
2023/03/19 11:58:39;;;;;;;30.77;29.02;;;14.30;99.90;;;;;;5065458;28;20092;-74
2023/03/19 12:01:24;;;;;;;31.13;29.63;;;14.20;99.90;;;;;;5058526;28;20049;-75
2023/03/19 12:03:54;;;;;;;29.70;28.30;;;14.30;99.90;;;;;;5058703;28;20048;-75
2023/03/19 12:06:43;;;;;;;30.23;28.65;;;14.40;99.90;;;;;;5064419;28;20517;-75
2023/03/19 12:09:12;;;;;;;28.33;26.90;;;14.50;99.90;;;;;;5060060;28;20045;-76
2023/03/19 12:11:53;;;;;;;30.00;28.23;;;14.60;99.90;;;;;;5040220;28;20459;-78
2023/03/19 12:14:26;;;;;;;29.13;27.50;;;14.40;99.90;;;;;;5063900;28;20062;-77
2023/03/19 12:17:12;;;;;;;31.33;29.83;;;14.30;99.90;;;;;;5046033;28;20055;-75
2023/03/19 12:20:14;;;;;;;31.80;30.10;;;14.40;99.90;;;;;;5067751;28;20044;-74
2023/03/19 12:22:59;;;;;;;41.95;39.47;;;14.50;99.90;;;;;;5045657;28;20160;-75
2023/03/19 12:26:07;;;;;;;36.42;34.42;;;14.50;99.90;;;;;;5061057;28;20044;-74
2023/03/19 12:28:40;;;;;;;33.60;31.90;;;14.60;99.90;;;;;;5062359;28;20079;-77
2023/03/19 12:31:41;;;;;;;34.15;32.35;;;14.70;99.90;;;;;;5063952;28;20396;-75
2023/03/19 12:34:15;;;;;;;36.15;34.55;;;14.90;99.90;;;;;;5058411;28;20139;-78
2023/03/19 12:37:17;;;;;;;36.58;34.50;;;15.00;99.90;;;;;;5069186;28;20127;-75
2023/03/19 12:40:28;;;;;;;37.40;35.60;;;15.10;99.90;;;;;;5060636;28;20052;-74
2023/03/19 12:43:04;;;;;;;34.88;33.17;;;15.50;99.90;;;;;;5049621;28;20044;-74
2023/03/19 12:45:43;;;;;;;38.67;36.47;;;15.50;99.90;;;;;;5063650;28;20076;-74
2023/03/19 12:48:26;;;;;;;36.50;34.72;;;15.50;99.90;;;;;;5064042;28;20044;-74
2023/03/19 12:50:56;;;;;;;38.38;36.58;;;15.40;99.90;;;;;;5065491;28;20101;-76
2023/03/19 12:53:35;;;;;;;38.17;36.38;;;15.40;99.90;;;;;;5066184;28;20052;-74
2023/03/19 12:56:10;;;;;;;38.70;36.92;;;15.50;99.90;;;;;;5060865;28;20033;-73
2023/03/19 12:58:50;;;;;;;37.78;35.97;;;15.60;99.90;;;;;;5062899;28;20493;-75
2023/03/19 13:01:26;;;;;;;37.65;35.88;;;15.60;99.90;;;;;;5059161;28;20056;-76
2023/03/19 13:04:13;;;;;;;37.22;35.53;;;15.70;99.90;;;;;;5063641;28;20738;-78
2023/03/19 13:07:00;;;;;;;39.28;37.28;;;15.70;99.90;;;;;;5063643;28;20086;-73